Time;durP1;ratioP1;P1;durP2;ratioP2;P2;SDS_P1;SDS_P2;PMS_P1;PMS_P2;Temp;Humidity;BMP_temperature;BMP_pressure;BME280_temperature;BME280_humidity;BME280_pressure;Samples;Min_cycle;Max_cycle;Signal;HPM_P1;HPM_P2
2021/07/21 00:02:24;;;;;;;9.07;5.57;;;17.20;95.20;;;;;;5090947;28;20111;-88
2021/07/21 00:04:49;;;;;;;9.75;4.95;;;17.10;95.30;;;;;;5090557;28;20028;-88
2021/07/21 00:07:16;;;;;;;10.73;5.13;;;17.10;95.50;;;;;;5108641;28;20016;-88
2021/07/21 00:09:42;;;;;;;11.27;5.82;;;17.10;95.50;;;;;;5108163;28;20392;-88
2021/07/21 00:14:52;;;;;;;10.68;6.00;;;17.10;95.60;;;;;;5109036;28;20104;-87
2021/07/21 00:17:25;;;;;;;10.20;5.90;;;17.10;95.80;;;;;;5076716;28;20063;-89
2021/07/21 00:20:07;;;;;;;11.10;6.18;;;17.10;95.90;;;;;;5076430;28;20024;-88
2021/07/21 00:22:38;;;;;;;10.38;5.80;;;17.10;95.90;;;;;;5076713;28;20028;-88
2021/07/21 00:25:06;;;;;;;9.73;5.90;;;17.10;95.90;;;;;;5076743;28;20028;-88
2021/07/21 00:27:33;;;;;;;10.68;5.38;;;17.10;96.00;;;;;;5076641;28;20503;-88
2021/07/21 00:29:59;;;;;;;9.07;5.65;;;17.10;95.90;;;;;;5094191;28;20044;-88
2021/07/21 00:32:24;;;;;;;10.27;5.78;;;17.10;95.80;;;;;;5076658;28;20063;-88
2021/07/21 00:34:50;;;;;;;11.00;6.13;;;17.10;95.90;;;;;;5076802;28;20032;-88
2021/07/21 00:37:16;;;;;;;10.60;5.68;;;17.10;95.80;;;;;;5076329;28;20496;-88
2021/07/21 00:39:41;;;;;;;8.18;5.50;;;17.10;95.80;;;;;;5075900;28;20481;-88
2021/07/21 00:42:07;;;;;;;10.32;5.40;;;17.10;95.80;;;;;;5076401;28;20028;-88
2021/07/21 00:44:33;;;;;;;9.98;5.45;;;17.10;95.80;;;;;;5076308;28;20046;-88
2021/07/21 00:46:59;;;;;;;10.60;5.80;;;17.10;95.80;;;;;;5076428;28;20031;-88
2021/07/21 00:49:25;;;;;;;9.55;5.32;;;17.10;95.70;;;;;;5075664;28;20131;-88
2021/07/21 00:51:54;;;;;;;9.77;5.47;;;17.10;95.60;;;;;;5094318;28;20099;-88
2021/07/21 00:54:20;;;;;;;;;;;17.10;95.50;;;;;;5094902;28;20388;-88
2021/07/21 00:56:47;;;;;;;9.48;5.70;;;17.10;95.30;;;;;;5076233;28;19911;-88
2021/07/21 00:59:14;;;;;;;9.05;5.20;;;17.10;95.30;;;;;;5075567;28;20024;-88
2021/07/21 01:01:41;;;;;;;9.18;5.47;;;17.10;95.30;;;;;;5076146;28;20373;-88
2021/07/21 01:04:07;;;;;;;8.65;5.38;;;17.10;95.20;;;;;;5076043;28;20369;-88
2021/07/21 01:06:32;;;;;;;8.95;5.68;;;17.10;95.30;;;;;;5076076;28;20111;-88
2021/07/21 01:08:59;;;;;;;8.88;5.03;;;17.10;95.10;;;;;;5075596;28;20116;-88
2021/07/21 01:11:37;;;;;;;9.30;5.20;;;17.10;95.10;;;;;;5075901;28;20039;-88
2021/07/21 01:14:32;;;;;;;10.88;5.63;;;17.10;95.20;;;;;;5094291;28;20526;-88
2021/07/21 01:17:04;;;;;;;10.68;5.68;;;17.10;95.20;;;;;;5069299;28;20067;-88
2021/07/21 01:19:48;;;;;;;10.95;5.50;;;17.10;95.20;;;;;;5097084;28;20036;-88
2021/07/21 01:22:23;;;;;;;8.80;5.63;;;17.00;95.40;;;;;;5081761;28;20024;-88
2021/07/21 01:25:12;;;;;;;11.43;5.63;;;17.00;95.40;;;;;;5117705;28;20043;-88
2021/07/21 01:27:47;;;;;;;10.98;5.65;;;17.00;95.50;;;;;;5088537;28;20117;-88
2021/07/21 01:30:22;;;;;;;9.77;5.40;;;16.90;95.60;;;;;;5075903;28;20423;-88
2021/07/21 01:32:52;;;;;;;11.73;5.78;;;16.90;95.70;;;;;;5085886;28;20020;-88
2021/07/21 01:35:22;;;;;;;9.95;5.20;;;16.80;95.90;;;;;;5094271;28;20028;-89
2021/07/21 01:37:59;;;;;;;12.32;5.97;;;16.80;96.00;;;;;;5075939;28;20028;-88
2021/07/21 01:40:35;;;;;;;10.70;5.88;;;16.80;96.10;;;;;;5095098;28;20020;-88
2021/07/21 01:43:04;;;;;;;9.57;5.65;;;16.80;96.20;;;;;;5076582;28;20502;-88
2021/07/21 01:45:33;;;;;;;24.08;6.88;;;16.70;96.30;;;;;;5076075;28;20042;-88
2021/07/21 01:48:01;;;;;;;9.47;5.37;;;16.70;96.30;;;;;;5076390;28;20476;-88
2021/07/21 01:50:29;;;;;;;11.40;6.20;;;16.70;96.40;;;;;;5076222;28;20051;-88
2021/07/21 01:52:58;;;;;;;12.30;5.60;;;16.60;96.50;;;;;;5087254;28;20043;-87
2021/07/21 01:55:24;;;;;;;9.13;5.75;;;16.70;96.50;;;;;;5100680;28;20020;-88
2021/07/21 01:57:51;;;;;;;9.75;5.80;;;16.70;96.60;;;;;;5101026;28;20102;-88
2021/07/21 02:00:18;;;;;;;9.10;5.50;;;16.60;96.70;;;;;;5099567;28;20031;-87
2021/07/21 02:02:48;;;;;;;10.20;5.95;;;16.60;96.80;;;;;;5100966;28;20035;-88
2021/07/21 02:05:16;;;;;;;10.20;5.88;;;16.70;96.80;;;;;;5100819;28;20028;-88
2021/07/21 02:07:44;;;;;;;9.70;5.53;;;16.70;96.80;;;;;;5108504;28;20024;-88
2021/07/21 02:10:16;;;;;;;12.63;5.60;;;16.70;96.70;;;;;;5073333;28;20103;-89
2021/07/21 02:12:43;;;;;;;9.48;5.60;;;16.60;96.80;;;;;;5092390;28;20028;-89
2021/07/21 02:15:09;;;;;;;10.30;5.30;;;16.70;96.60;;;;;;5093149;28;20024;-88
2021/07/21 02:17:39;;;;;;;11.68;5.72;;;16.70;96.60;;;;;;5074513;28;20035;-89
2021/07/21 02:20:07;;;;;;;11.63;6.07;;;16.70;96.50;;;;;;5074515;28;20020;-89
2021/07/21 02:22:33;;;;;;;10.80;5.90;;;16.60;96.40;;;;;;5074575;28;20024;-88
2021/07/21 02:24:59;;;;;;;10.30;5.88;;;16.60;96.30;;;;;;5074833;28;20031;-88
2021/07/21 02:27:25;;;;;;;10.20;6.10;;;16.60;96.30;;;;;;5074467;28;20030;-88
2021/07/21 02:29:51;;;;;;;10.15;6.13;;;16.60;96.30;;;;;;5074025;28;20111;-88
2021/07/21 02:32:29;;;;;;;12.23;6.28;;;16.60;96.30;;;;;;5074063;28;20047;-88
2021/07/21 02:34:54;;;;;;;13.02;6.25;;;16.60;96.40;;;;;;5074439;28;20024;-88
2021/07/21 02:37:20;;;;;;;9.77;6.10;;;16.50;96.50;;;;;;5074514;28;20035;-88
2021/07/21 02:39:49;;;;;;;11.05;5.95;;;16.50;96.60;;;;;;5073466;28;20031;-88
2021/07/21 02:42:16;;;;;;;11.90;6.57;;;16.50;96.70;;;;;;5074566;28;20055;-88
2021/07/21 02:44:47;;;;;;;11.07;6.22;;;16.50;96.80;;;;;;5074242;28;20286;-88
2021/07/21 02:47:14;;;;;;;12.65;6.50;;;16.50;96.90;;;;;;5074249;28;20020;-89
2021/07/21 02:49:41;;;;;;;12.35;6.28;;;16.50;97.00;;;;;;5092489;28;20024;-88
2021/07/21 02:52:11;;;;;;;11.70;6.80;;;16.50;97.10;;;;;;5074638;28;20115;-89
2021/07/21 02:54:48;;;;;;;11.13;6.72;;;16.50;97.00;;;;;;5074376;28;20073;-88
2021/07/21 02:57:26;;;;;;;10.85;6.00;;;16.50;97.00;;;;;;5074705;28;20062;-89
2021/07/21 02:59:56;;;;;;;10.48;6.05;;;16.40;97.00;;;;;;5074866;28;20028;-88
2021/07/21 03:02:26;;;;;;;9.55;5.85;;;16.40;97.10;;;;;;5076721;28;20054;-89
2021/07/21 03:04:57;;;;;;;9.93;6.10;;;16.40;97.20;;;;;;5094682;28;20020;-89
2021/07/21 03:07:23;;;;;;;10.52;5.85;;;16.40;97.20;;;;;;5076580;28;20024;-87
2021/07/21 03:09:53;;;;;;;10.10;6.20;;;16.30;97.30;;;;;;5075183;28;20028;-88
2021/07/21 03:12:22;;;;;;;11.52;6.63;;;16.30;97.40;;;;;;5076418;28;20107;-88
2021/07/21 03:14:54;;;;;;;11.10;6.50;;;16.30;97.30;;;;;;5078944;28;20060;-89
2021/07/21 03:17:24;;;;;;;10.80;5.90;;;16.30;97.30;;;;;;5096277;28;20036;-88
2021/07/21 03:19:54;;;;;;;10.38;5.85;;;16.30;97.30;;;;;;5076228;28;20088;-88
2021/07/21 03:22:25;;;;;;;12.15;6.25;;;16.30;97.30;;;;;;5075365;28;20117;-88
2021/07/21 03:24:52;;;;;;;10.23;6.20;;;16.20;97.40;;;;;;5075527;28;20031;-89
2021/07/21 03:27:19;;;;;;;12.02;6.82;;;16.20;97.60;;;;;;5075258;28;20020;-88
2021/07/21 03:29:50;;;;;;;11.50;6.10;;;16.20;97.90;;;;;;5074039;28;20102;-89
2021/07/21 03:32:22;;;;;;;11.00;6.22;;;16.20;98.00;;;;;;5074151;28;20031;-88
2021/07/21 03:34:49;;;;;;;9.85;5.97;;;16.20;98.00;;;;;;5074232;28;20480;-88
2021/07/21 03:37:17;;;;;;;11.30;6.20;;;16.20;97.80;;;;;;5074198;28;20056;-88
2021/07/21 03:39:46;;;;;;;15.52;6.43;;;16.10;97.80;;;;;;5074009;28;20089;-90
2021/07/21 03:42:13;;;;;;;10.90;6.10;;;16.10;98.00;;;;;;5073904;28;20374;-89
2021/07/21 03:44:42;;;;;;;10.27;6.50;;;16.00;98.20;;;;;;5073883;28;20031;-88
2021/07/21 03:47:08;;;;;;;8.68;5.22;;;15.90;98.40;;;;;;5074249;28;20492;-89
2021/07/21 03:49:34;;;;;;;12.52;6.65;;;15.90;98.40;;;;;;5074021;28;20123;-88
2021/07/21 03:52:00;;;;;;;11.40;5.82;;;15.80;98.50;;;;;;5074480;28;20511;-88
2021/07/21 03:54:27;;;;;;;9.07;5.57;;;15.90;98.70;;;;;;5077775;28;20035;-88
2021/07/21 03:56:57;;;;;;;9.98;5.97;;;15.80;98.70;;;;;;5078099;28;20032;-88
2021/07/21 03:59:26;;;;;;;10.52;6.18;;;15.80;98.80;;;;;;5077802;28;20028;-88
2021/07/21 04:01:56;;;;;;;10.82;5.80;;;15.70;98.90;;;;;;5077658;28;20392;-88
2021/07/21 04:04:23;;;;;;;11.32;6.07;;;15.70;98.90;;;;;;5077771;28;20032;-88
2021/07/21 04:06:53;;;;;;;11.30;6.70;;;15.80;99.10;;;;;;5077554;28;20105;-88
2021/07/21 04:09:24;;;;;;;10.75;5.97;;;15.70;99.10;;;;;;5077635;28;20028;-89
2021/07/21 04:11:51;;;;;;;10.40;6.15;;;15.80;99.20;;;;;;5077310;28;20035;-88
2021/07/21 04:14:18;;;;;;;9.38;5.93;;;15.80;99.30;;;;;;5077802;28;20063;-88
2021/07/21 04:16:47;;;;;;;11.55;6.10;;;15.70;99.30;;;;;;5077127;28;20040;-89
2021/07/21 04:19:14;;;;;;;10.52;6.60;;;15.80;99.40;;;;;;5076989;28;20404;-88
2021/07/21 04:21:45;;;;;;;12.00;6.55;;;15.80;99.40;;;;;;5077066;28;20032;-89
2021/07/21 04:24:11;;;;;;;11.15;6.43;;;15.80;99.40;;;;;;5076916;28;20028;-88
2021/07/21 04:26:40;;;;;;;13.32;6.68;;;15.80;99.40;;;;;;5076922;28;20024;-88
2021/07/21 04:29:09;;;;;;;15.10;7.22;;;15.90;99.40;;;;;;5076913;28;20028;-89
2021/07/21 04:31:37;;;;;;;12.90;6.85;;;15.90;99.50;;;;;;5077288;28;20439;-89
2021/07/21 04:34:05;;;;;;;14.73;6.72;;;15.90;99.40;;;;;;5094853;28;20078;-88
2021/07/21 04:36:33;;;;;;;11.48;6.30;;;15.90;99.40;;;;;;5094827;28;20047;-90
2021/07/21 04:38:59;;;;;;;11.88;6.20;;;15.90;99.40;;;;;;5094682;28;20063;-90
2021/07/21 04:41:25;;;;;;;10.82;6.03;;;16.00;99.50;;;;;;5076641;28;20028;-89
2021/07/21 04:43:51;;;;;;;11.30;6.13;;;16.00;99.30;;;;;;5076704;28;20020;-89
2021/07/21 04:46:18;;;;;;;16.60;6.88;;;16.10;99.40;;;;;;5076535;28;20024;-89
2021/07/21 04:48:45;;;;;;;10.55;6.50;;;16.10;99.30;;;;;;5076561;28;20048;-89
2021/07/21 04:51:12;;;;;;;13.75;7.00;;;16.10;99.20;;;;;;5076176;28;20024;-89
2021/07/21 04:53:38;;;;;;;13.20;6.88;;;16.10;99.30;;;;;;5076762;28;20437;-88
2021/07/21 04:56:04;;;;;;;11.40;6.47;;;16.10;99.40;;;;;;5076428;28;20028;-88
2021/07/21 04:58:30;;;;;;;13.55;7.00;;;16.20;99.40;;;;;;5076660;28;20365;-89
2021/07/21 05:00:56;;;;;;;10.25;6.57;;;16.30;99.10;;;;;;5076155;28;20115;-88
2021/07/21 05:03:22;;;;;;;11.23;6.47;;;16.30;99.10;;;;;;5094323;28;20481;-89
2021/07/21 05:05:48;;;;;;;10.68;6.45;;;16.30;99.40;;;;;;5076061;28;20138;-88
2021/07/21 05:08:14;;;;;;;10.27;6.45;;;16.40;99.10;;;;;;5076252;28;20055;-88
2021/07/21 05:10:40;;;;;;;10.95;6.07;;;16.40;99.10;;;;;;5093787;28;20106;-89
2021/07/21 05:13:06;;;;;;;11.40;6.55;;;16.50;99.00;;;;;;5076241;28;20043;-88
2021/07/21 05:15:32;;;;;;;11.65;6.00;;;16.50;98.90;;;;;;5076349;28;20059;-88
2021/07/21 05:22:07;;;;;;;11.90;7.13;;;16.60;98.70;;;;;;5073562;28;20036;-88
2021/07/21 05:24:33;;;;;;;11.50;6.85;;;16.70;98.70;;;;;;5055376;28;20124;-88
2021/07/21 05:26:58;;;;;;;9.85;6.50;;;16.70;98.60;;;;;;5073396;28;20107;-88
2021/07/21 05:29:24;;;;;;;11.57;5.95;;;16.80;98.60;;;;;;5055070;28;20389;-88
2021/07/21 05:31:50;;;;;;;13.18;6.97;;;16.90;98.50;;;;;;5056311;28;20025;-88
2021/07/21 05:34:15;;;;;;;13.23;7.03;;;16.90;98.40;;;;;;5057965;28;20028;-90
2021/07/21 05:36:41;;;;;;;12.90;6.72;;;16.90;98.20;;;;;;5057644;28;20039;-90
2021/07/21 05:39:08;;;;;;;12.27;6.40;;;17.00;97.90;;;;;;5056556;28;20035;-89
2021/07/21 05:41:34;;;;;;;12.20;6.00;;;17.00;97.70;;;;;;5056715;28;20408;-88
2021/07/21 05:44:00;;;;;;;10.68;6.18;;;17.10;97.70;;;;;;5075295;28;20029;-88
2021/07/21 05:46:26;;;;;;;9.43;5.90;;;17.20;97.70;;;;;;5073824;28;20425;-88
2021/07/21 05:48:51;;;;;;;10.85;6.30;;;17.20;97.50;;;;;;5061344;28;20048;-88
2021/07/21 05:51:17;;;;;;;8.88;5.78;;;17.20;97.50;;;;;;5076034;28;20021;-88
2021/07/21 05:54:46;;;;;;;11.07;6.25;;;17.30;97.60;;;;;;5055578;28;20046;-89
2021/07/21 05:57:39;;;;;;;11.15;6.15;;;17.30;97.60;;;;;;5028120;28;20030;-88
2021/07/21 06:00:06;;;;;;;13.73;6.13;;;17.50;97.60;;;;;;5013262;28;20037;-88
2021/07/21 06:02:31;;;;;;;9.52;6.07;;;17.50;97.60;;;;;;5052729;28;20115;-88
2021/07/21 06:04:57;;;;;;;12.82;7.28;;;17.60;97.70;;;;;;5054490;28;20169;-88
2021/07/21 06:07:22;;;;;;;9.57;5.97;;;17.60;98.10;;;;;;5072707;28;20025;-88
2021/07/21 06:09:48;;;;;;;9.32;6.35;;;17.70;98.10;;;;;;5072199;28;20103;-88
2021/07/21 06:12:14;;;;;;;11.85;6.25;;;17.70;98.30;;;;;;5054737;28;20025;-88
2021/07/21 06:14:39;;;;;;;9.70;6.72;;;17.80;98.10;;;;;;5054449;28;20123;-88
2021/07/21 06:17:05;;;;;;;10.23;6.20;;;17.80;97.80;;;;;;5054444;28;20044;-89
2021/07/21 06:19:33;;;;;;;11.77;5.78;;;17.90;97.40;;;;;;5054010;28;20024;-88
2021/07/21 06:22:00;;;;;;;9.85;5.63;;;17.90;97.10;;;;;;5054409;28;20108;-88
2021/07/21 06:24:27;;;;;;;13.68;6.18;;;18.00;96.90;;;;;;5072302;28;20059;-88
2021/07/21 06:26:53;;;;;;;13.15;6.30;;;18.10;97.10;;;;;;5054312;28;20340;-88
2021/07/21 06:29:19;;;;;;;10.05;5.65;;;18.10;96.70;;;;;;5053733;28;20052;-88
2021/07/21 06:31:44;;;;;;;12.77;6.40;;;18.20;96.50;;;;;;5054506;28;20063;-89
2021/07/21 06:34:10;;;;;;;8.48;5.40;;;18.20;96.00;;;;;;5072155;28;20035;-89
2021/07/21 06:36:35;;;;;;;8.40;5.35;;;18.20;95.90;;;;;;5054217;28;20086;-89
2021/07/21 06:39:01;;;;;;;7.28;4.95;;;18.30;95.50;;;;;;5053644;28;20473;-89
2021/07/21 06:41:27;;;;;;;10.02;5.00;;;18.30;95.20;;;;;;5054159;28;20119;-88
2021/07/21 06:43:54;;;;;;;9.40;4.85;;;18.30;94.90;;;;;;5071844;28;20162;-88
2021/07/21 06:46:20;;;;;;;6.63;4.45;;;18.40;94.80;;;;;;5071884;28;20028;-89
2021/07/21 06:48:46;;;;;;;8.07;5.18;;;18.40;94.60;;;;;;5071851;28;20107;-88
2021/07/21 06:51:12;;;;;;;9.57;5.10;;;18.50;94.50;;;;;;5053628;28;20052;-88
2021/07/21 06:53:38;;;;;;;8.45;5.20;;;18.50;94.50;;;;;;5053975;28;20442;-88
2021/07/21 06:56:03;;;;;;;8.68;5.22;;;18.50;94.40;;;;;;5054095;28;20036;-89
2021/07/21 06:58:29;;;;;;;9.82;5.35;;;18.60;94.10;;;;;;5053848;28;20098;-88
2021/07/21 07:00:55;;;;;;;8.35;4.97;;;18.60;93.40;;;;;;5053341;28;20028;-89
2021/07/21 07:03:21;;;;;;;9.80;4.90;;;18.70;93.20;;;;;;5053734;28;20028;-88
2021/07/21 07:05:47;;;;;;;8.52;4.93;;;18.70;93.60;;;;;;5071718;28;20067;-88
2021/07/21 07:08:13;;;;;;;8.32;5.03;;;18.80;93.20;;;;;;5053759;28;20123;-88
2021/07/21 07:10:39;;;;;;;7.95;4.65;;;18.80;92.90;;;;;;5071457;28;20104;-89
2021/07/21 07:13:05;;;;;;;6.47;4.20;;;18.80;92.20;;;;;;5053745;28;20056;-89
2021/07/21 07:15:31;;;;;;;6.38;4.20;;;18.90;92.10;;;;;;5054094;28;20033;-88
2021/07/21 07:17:57;;;;;;;6.95;3.78;;;18.90;92.00;;;;;;5071473;28;20037;-89
2021/07/21 07:20:23;;;;;;;7.90;4.57;;;18.90;92.00;;;;;;5053162;28;20036;-89
2021/07/21 07:22:49;;;;;;;8.60;4.38;;;19.00;91.60;;;;;;5071622;28;20032;-89
2021/07/21 07:25:15;;;;;;;8.13;4.03;;;19.00;91.60;;;;;;5071483;28;20032;-88
2021/07/21 07:27:40;;;;;;;7.30;4.07;;;19.10;91.50;;;;;;5057431;28;20031;-88
2021/07/21 07:30:07;;;;;;;8.68;4.13;;;19.10;91.50;;;;;;5057189;28;20133;-89
2021/07/21 07:32:32;;;;;;;12.35;4.60;;;19.10;91.70;;;;;;5057380;28;20422;-89
2021/07/21 07:34:58;;;;;;;9.35;5.22;;;19.20;91.40;;;;;;5076084;28;20056;-89
2021/07/21 07:37:24;;;;;;;10.57;4.60;;;19.20;91.50;;;;;;5057683;28;20051;-89
2021/07/21 07:39:49;;;;;;;8.13;4.18;;;19.20;91.40;;;;;;5074968;28;20407;-88
2021/07/21 07:42:15;;;;;;;10.10;4.50;;;19.20;91.40;;;;;;5057355;28;20032;-88
2021/07/21 07:44:41;;;;;;;13.20;5.00;;;19.30;91.50;;;;;;5057384;28;20031;-88
2021/07/21 07:47:07;;;;;;;9.13;5.05;;;19.30;91.50;;;;;;5075194;28;20024;-89
2021/07/21 07:49:33;;;;;;;9.00;5.10;;;19.30;91.50;;;;;;5056868;28;20042;-88
2021/07/21 07:51:59;;;;;;;8.43;4.97;;;19.30;91.20;;;;;;5057573;28;20021;-88
2021/07/21 07:54:26;;;;;;;7.57;4.60;;;19.40;91.40;;;;;;5075580;28;20431;-89
2021/07/21 07:56:51;;;;;;;9.10;4.70;;;19.40;91.30;;;;;;5075383;28;20380;-88
2021/07/21 07:59:17;;;;;;;7.30;4.20;;;19.40;91.10;;;;;;5057471;28;20020;-89
2021/07/21 08:01:43;;;;;;;7.40;4.32;;;19.40;91.00;;;;;;5075326;28;20025;-89
2021/07/21 08:04:08;;;;;;;7.43;4.53;;;19.50;91.00;;;;;;5057338;28;20021;-88
2021/07/21 08:06:34;;;;;;;9.02;4.60;;;19.50;91.00;;;;;;5075373;28;20538;-88
2021/07/21 08:09:02;;;;;;;7.95;4.75;;;19.50;91.20;;;;;;5057268;28;20558;-88
2021/07/21 08:11:28;;;;;;;7.40;4.60;;;19.50;91.30;;;;;;5075026;28;20028;-88
2021/07/21 08:13:53;;;;;;;8.82;4.78;;;19.50;91.50;;;;;;5057299;28;20028;-88
2021/07/21 08:16:19;;;;;;;7.88;4.57;;;19.50;91.80;;;;;;5074940;28;20411;-88
2021/07/21 08:18:45;;;;;;;7.97;4.72;;;19.50;91.40;;;;;;5074972;28;20074;-88
2021/07/21 08:21:11;;;;;;;8.50;4.57;;;19.60;91.10;;;;;;5057066;28;20042;-88
2021/07/21 08:23:37;;;;;;;8.75;4.60;;;19.60;90.80;;;;;;5075004;28;20099;-88
2021/07/21 08:26:03;;;;;;;7.72;4.30;;;19.60;90.70;;;;;;5057093;28;20025;-87
2021/07/21 08:28:28;;;;;;;8.95;4.82;;;19.70;90.90;;;;;;5056927;28;20047;-88
2021/07/21 08:30:54;;;;;;;6.65;3.95;;;19.70;90.80;;;;;;5074854;28;20021;-88
2021/07/21 08:33:20;;;;;;;6.65;4.30;;;19.70;90.70;;;;;;5074710;28;20017;-89
2021/07/21 08:35:46;;;;;;;10.63;5.32;;;19.70;90.70;;;;;;5056747;28;20028;-88
2021/07/21 08:38:12;;;;;;;7.15;4.38;;;19.80;90.40;;;;;;5056170;28;20489;-88
2021/07/21 08:40:40;;;;;;;7.25;4.63;;;19.80;90.40;;;;;;5074663;28;20021;-88
2021/07/21 08:43:08;;;;;;;7.78;4.68;;;19.80;90.30;;;;;;5057230;28;20057;-88
2021/07/21 08:45:35;;;;;;;7.78;4.63;;;19.80;90.40;;;;;;5074458;28;20055;-88
2021/07/21 08:48:03;;;;;;;8.70;5.00;;;19.80;90.40;;;;;;5056377;28;20020;-88
2021/07/21 08:50:29;;;;;;;7.93;4.57;;;19.80;90.30;;;;;;5056368;28;20029;-88
2021/07/21 08:52:56;;;;;;;8.90;4.70;;;19.80;90.00;;;;;;5074316;28;20036;-88
2021/07/21 08:55:23;;;;;;;7.72;4.90;;;19.80;90.00;;;;;;5056409;28;20032;-88
2021/07/21 08:57:50;;;;;;;7.25;5.00;;;19.80;89.80;;;;;;5056334;28;20507;-88
2021/07/21 09:00:16;;;;;;;8.88;5.10;;;19.80;89.70;;;;;;5074218;28;20166;-88
2021/07/21 09:02:43;;;;;;;8.95;4.78;;;19.80;89.40;;;;;;5057120;28;20025;-88
2021/07/21 09:05:11;;;;;;;7.43;4.60;;;19.90;87.90;;;;;;5056103;28;20101;-88
2021/07/21 09:07:38;;;;;;;8.93;4.90;;;19.90;88.00;;;;;;5056031;28;20029;-88
2021/07/21 09:10:06;;;;;;;8.43;4.82;;;20.00;88.30;;;;;;5074087;28;20024;-88
2021/07/21 09:12:32;;;;;;;8.43;4.70;;;20.00;88.60;;;;;;5056063;28;20435;-88
2021/07/21 09:14:58;;;;;;;9.00;4.57;;;20.10;88.40;;;;;;5055963;28;20028;-88
2021/07/21 09:17:25;;;;;;;8.35;5.03;;;20.20;87.40;;;;;;5073751;28;20028;-88
2021/07/21 09:19:51;;;;;;;7.90;4.93;;;20.20;86.60;;;;;;5074525;28;20092;-88
2021/07/21 09:22:35;;;;;;;9.00;5.30;;;20.30;86.40;;;;;;5055957;28;20036;-87
2021/07/21 09:25:20;;;;;;;8.18;5.18;;;20.40;84.70;;;;;;5056534;28;20029;-88
2021/07/21 09:27:49;;;;;;;7.38;4.78;;;20.50;84.30;;;;;;5073609;28;20164;-88
2021/07/21 09:30:18;;;;;;;8.45;4.70;;;20.50;83.90;;;;;;5073636;28;20034;-88
2021/07/21 09:32:53;;;;;;;;;;;20.50;83.60;;;;;;5056090;28;20114;-88
2021/07/21 09:35:19;;;;;;;8.82;4.72;;;20.60;83.00;;;;;;5055555;28;19908;-88
2021/07/21 09:37:45;;;;;;;8.93;5.00;;;20.70;82.70;;;;;;5073424;28;20099;-88
2021/07/21 09:40:12;;;;;;;8.00;4.95;;;20.70;82.50;;;;;;5073628;28;20025;-88
2021/07/21 09:42:38;;;;;;;9.25;5.10;;;20.80;82.90;;;;;;5055675;28;20108;-88
2021/07/21 09:45:15;;;;;;;8.32;4.90;;;20.70;82.60;;;;;;5073450;28;20032;-88
2021/07/21 09:48:00;;;;;;;8.82;5.10;;;20.80;82.10;;;;;;5073389;28;20024;-88
2021/07/21 09:50:35;;;;;;;9.93;5.60;;;20.80;82.20;;;;;;5072984;28;20035;-88
2021/07/21 09:53:04;;;;;;;8.27;5.05;;;20.80;82.60;;;;;;5055349;28;20024;-88
2021/07/21 09:55:32;;;;;;;8.70;5.10;;;20.80;83.40;;;;;;5072940;28;20024;-88
2021/07/21 09:58:00;;;;;;;8.88;4.85;;;20.80;83.60;;;;;;5055114;28;20024;-88
2021/07/21 10:00:28;;;;;;;8.82;5.10;;;20.80;83.80;;;;;;5055069;28;20521;-88
2021/07/21 10:03:12;;;;;;;8.10;5.10;;;20.80;83.80;;;;;;5055139;28;20032;-88
2021/07/21 10:05:56;;;;;;;10.07;5.03;;;20.80;83.80;;;;;;5072836;28;20270;-89
2021/07/21 10:08:29;;;;;;;8.70;5.15;;;20.80;82.50;;;;;;5072847;28;20032;-88
2021/07/21 10:10:56;;;;;;;8.32;4.85;;;20.90;81.40;;;;;;5072908;28;20040;-88
2021/07/21 10:13:22;;;;;;;7.07;4.25;;;20.90;80.20;;;;;;5054955;28;20520;-88
2021/07/21 10:15:49;;;;;;;10.05;4.93;;;20.90;79.60;;;;;;5054655;28;20028;-89
2021/07/21 10:18:16;;;;;;;7.90;4.70;;;21.00;80.40;;;;;;5072573;28;20035;-89
2021/07/21 10:20:44;;;;;;;8.38;5.05;;;20.90;81.20;;;;;;5072635;28;20131;-88
2021/07/21 10:23:13;;;;;;;7.10;4.63;;;20.90;81.20;;;;;;5054726;28;20071;-88
2021/07/21 10:25:38;;;;;;;;;;;21.00;81.20;;;;;;5073112;28;20029;-89
2021/07/21 10:28:05;;;;;;;7.75;4.60;;;21.00;81.40;;;;;;5054590;28;19904;-88
2021/07/21 10:30:33;;;;;;;6.38;4.30;;;21.00;81.50;;;;;;5054395;28;20162;-89
2021/07/21 10:33:00;;;;;;;8.93;5.63;;;21.00;81.80;;;;;;5072594;28;20044;-88
2021/07/21 10:35:27;;;;;;;8.65;5.60;;;21.00;81.40;;;;;;5072481;28;20020;-88
2021/07/21 10:37:53;;;;;;;8.32;5.45;;;21.00;81.60;;;;;;5054444;28;20020;-89
2021/07/21 10:40:25;;;;;;;9.85;6.15;;;21.00;80.30;;;;;;5055885;28;20029;-88
2021/07/21 10:42:53;;;;;;;8.23;5.53;;;21.10;80.20;;;;;;5075214;28;20021;-88
2021/07/21 10:45:20;;;;;;;10.13;5.72;;;21.20;80.20;;;;;;5057777;28;20028;-88
2021/07/21 10:47:49;;;;;;;8.75;5.68;;;21.20;79.40;;;;;;5054378;28;20086;-88
2021/07/21 10:50:24;;;;;;;10.43;5.10;;;21.30;79.70;;;;;;5054455;28;20039;-88
2021/07/21 10:52:59;;;;;;;9.02;5.38;;;21.30;79.50;;;;;;5072411;28;20031;-88
2021/07/21 10:55:30;;;;;;;8.13;5.03;;;21.30;79.50;;;;;;5072185;28;20024;-88
2021/07/21 11:00:54;;;;;;;8.75;5.13;;;21.50;78.60;;;;;;5072438;28;20047;-88
2021/07/21 11:03:24;;;;;;;8.13;4.97;;;21.50;78.00;;;;;;5072200;28;20029;-88
2021/07/21 11:06:00;;;;;;;8.27;5.47;;;21.50;78.40;;;;;;5054140;28;20020;-88
2021/07/21 11:08:27;;;;;;;9.68;5.78;;;21.50;78.10;;;;;;5071975;28;20086;-88
2021/07/21 11:10:55;;;;;;;8.63;5.13;;;21.50;77.90;;;;;;5072240;28;20476;-88
2021/07/21 11:13:29;;;;;;;8.18;5.30;;;21.50;77.60;;;;;;5072027;28;20052;-88
2021/07/21 11:15:56;;;;;;;8.82;5.45;;;21.60;78.00;;;;;;5072088;28;20017;-88
2021/07/21 11:18:24;;;;;;;8.77;5.63;;;21.60;79.60;;;;;;5110913;22;20048;-82
2021/07/21 11:20:56;;;;;;;9.40;5.35;;;21.60;77.80;;;;;;5073869;28;20031;-82
2021/07/21 11:23:47;;;;;;;8.07;5.25;;;21.70;78.50;;;;;;5074812;28;20059;-82
2021/07/21 11:26:34;;;;;;;9.10;5.32;;;21.70;77.70;;;;;;5093360;28;20103;-82
2021/07/21 11:29:22;;;;;;;8.60;5.38;;;21.70;77.60;;;;;;5072529;28;20431;-82
2021/07/21 11:31:53;;;;;;;8.82;5.70;;;21.70;77.10;;;;;;5072538;28;20107;-82
2021/07/21 11:34:36;;;;;;;8.73;5.45;;;21.70;77.10;;;;;;5054384;28;20496;-82
2021/07/21 11:37:05;;;;;;;9.70;5.50;;;21.70;77.00;;;;;;5054579;28;20040;-82
2021/07/21 11:39:50;;;;;;;9.48;5.90;;;21.70;77.40;;;;;;5053853;28;20028;-82
2021/07/21 11:42:29;;;;;;;12.43;6.20;;;21.70;78.00;;;;;;5072676;28;20100;-82
2021/07/21 11:45:13;;;;;;;8.98;6.30;;;21.70;78.20;;;;;;5054737;28;20024;-82
2021/07/21 11:47:52;;;;;;;8.18;5.47;;;21.80;78.00;;;;;;5072701;28;20051;-82
2021/07/21 11:50:22;;;;;;;8.98;5.68;;;21.80;78.30;;;;;;5054678;28;20028;-82
2021/07/21 11:52:56;;;;;;;9.18;5.75;;;21.80;79.10;;;;;;5073019;28;20031;-82
2021/07/21 11:55:27;;;;;;;8.93;5.97;;;21.80;79.30;;;;;;5073188;28;20036;-82
2021/07/21 11:57:54;;;;;;;11.48;5.70;;;21.80;78.60;;;;;;5072650;28;20096;-82
2021/07/21 12:00:21;;;;;;;8.65;5.55;;;21.80;78.80;;;;;;5053817;28;20477;-82
2021/07/21 12:02:47;;;;;;;9.23;5.78;;;21.80;78.10;;;;;;5054223;28;20408;-82
2021/07/21 12:05:13;;;;;;;8.48;5.40;;;21.90;78.30;;;;;;5054312;28;20029;-82
2021/07/21 12:07:40;;;;;;;9.60;6.13;;;21.90;78.70;;;;;;5054525;28;20032;-82
2021/07/21 12:10:30;;;;;;;10.77;6.63;;;21.90;79.10;;;;;;5053683;28;20107;-82
2021/07/21 12:12:56;;;;;;;10.27;6.32;;;21.90;77.90;;;;;;5055729;28;20348;-83
2021/07/21 12:15:22;;;;;;;10.93;6.65;;;22.00;77.20;;;;;;5075890;28;20477;-82
2021/07/21 12:17:49;;;;;;;10.95;6.90;;;22.00;75.00;;;;;;5075770;28;20033;-82
2021/07/21 12:20:16;;;;;;;9.75;6.40;;;22.00;75.60;;;;;;5056768;28;20049;-82
2021/07/21 12:22:44;;;;;;;8.80;6.18;;;22.00;76.10;;;;;;5057537;28;20036;-82
2021/07/21 12:25:13;;;;;;;8.68;6.30;;;22.10;76.10;;;;;;5057430;28;20028;-82
2021/07/21 12:27:44;;;;;;;10.77;6.85;;;22.10;76.70;;;;;;5057470;28;20074;-82
2021/07/21 12:30:13;;;;;;;10.05;6.00;;;22.10;76.50;;;;;;5057202;28;20028;-82
2021/07/21 12:32:40;;;;;;;9.90;6.15;;;22.10;76.70;;;;;;5075495;28;20515;-82
2021/07/21 12:35:09;;;;;;;9.75;6.50;;;22.10;76.80;;;;;;5057203;28;20052;-82
2021/07/21 12:37:40;;;;;;;11.55;7.03;;;22.10;77.10;;;;;;5075701;28;20469;-82
2021/07/21 12:40:09;;;;;;;10.75;7.07;;;22.10;77.00;;;;;;5057339;28;20029;-82
2021/07/21 12:42:35;;;;;;;10.23;7.25;;;22.20;76.30;;;;;;5075782;28;20049;-82
2021/07/21 12:45:05;;;;;;;10.77;7.35;;;22.20;76.30;;;;;;5075462;28;20104;-82
2021/07/21 12:47:35;;;;;;;13.23;7.30;;;22.20;76.70;;;;;;5075224;28;20032;-83
2021/07/21 12:50:03;;;;;;;8.75;6.32;;;22.20;76.80;;;;;;5056635;28;20020;-83
2021/07/21 12:52:34;;;;;;;10.80;7.22;;;22.30;76.20;;;;;;5075462;28;20028;-83
2021/07/21 12:55:03;;;;;;;12.60;7.65;;;22.30;76.10;;;;;;5075811;28;20102;-83
2021/07/21 12:57:49;;;;;;;12.02;7.85;;;22.30;75.70;;;;;;5075101;28;20401;-83
2021/07/21 13:00:17;;;;;;;14.07;8.45;;;22.30;75.50;;;;;;5075069;28;20469;-83
2021/07/21 13:03:06;;;;;;;12.85;8.40;;;22.30;74.60;;;;;;5057396;28;20028;-83